createdAt,value
2018-07-05T00:01:22.919Z,94.80
2018-07-05T00:04:09.159Z,95.08
2018-07-05T00:06:55.377Z,95.81
2018-07-05T00:09:41.534Z,95.55
2018-07-05T00:12:27.739Z,94.87
2018-07-05T00:15:13.950Z,95.04
2018-07-05T00:18:00.621Z,95.61
2018-07-05T00:20:47.216Z,95.53
2018-07-05T00:23:33.497Z,95.78
2018-07-05T00:26:19.763Z,95.90
2018-07-05T00:29:06.166Z,96.05
2018-07-05T00:31:52.618Z,95.95
2018-07-05T00:34:39.061Z,96.26
2018-07-05T00:37:25.425Z,95.40
2018-07-05T00:40:11.692Z,95.19
2018-07-05T00:42:57.804Z,95.39
2018-07-05T00:45:44.367Z,95.62
2018-07-05T00:48:30.899Z,96.13
2018-07-05T00:51:17.247Z,95.86
2018-07-05T00:54:03.890Z,96.27
2018-07-05T00:56:50.315Z,96.33
2018-07-05T00:59:36.695Z,96.61
2018-07-05T01:02:23.217Z,95.69
2018-07-05T01:05:09.694Z,95.96
2018-07-05T01:07:56.235Z,95.93
2018-07-05T01:10:42.766Z,95.87
2018-07-05T01:13:28.983Z,96.01
2018-07-05T01:16:15.280Z,96.56
2018-07-05T01:19:01.546Z,96.92
2018-07-05T01:21:47.887Z,97.06
2018-07-05T01:24:34.366Z,96.75
2018-07-05T01:27:20.864Z,96.54
2018-07-05T01:30:07.394Z,95.23
2018-07-05T01:32:53.655Z,95.17
2018-07-05T01:35:40.226Z,95.69
2018-07-05T01:38:26.629Z,94.64
2018-07-05T01:41:12.970Z,95.43
2018-07-05T01:43:59.458Z,95.56
2018-07-05T01:46:45.724Z,96.32
2018-07-05T01:49:32.154Z,96.51
2018-07-05T01:52:18.498Z,97.56
2018-07-05T01:55:05.083Z,97.33
2018-07-05T01:57:52.330Z,97.35
2018-07-05T02:00:38.970Z,97.09
2018-07-05T02:03:25.390Z,96.92
2018-07-05T02:06:11.827Z,96.81
2018-07-05T02:08:58.289Z,96.94
2018-07-05T02:11:44.738Z,97.06
2018-07-05T02:14:31.272Z,97.00
2018-07-05T02:17:11.680Z,96.28
2018-07-05T02:19:58.295Z,96.58
2018-07-05T02:22:44.654Z,96.61
2018-07-05T02:25:31.234Z,96.99
2018-07-05T02:28:17.625Z,96.75
2018-07-05T02:31:03.991Z,96.48
2018-07-05T02:33:50.543Z,97.02
2018-07-05T02:36:36.938Z,97.10
2018-07-05T02:39:28.928Z,97.53
2018-07-05T02:42:15.455Z,97.73
2018-07-05T02:45:01.832Z,97.65
2018-07-05T02:47:48.371Z,97.21
2018-07-05T02:50:34.875Z,97.10
2018-07-05T02:53:21.242Z,96.56
2018-07-05T02:56:07.699Z,97.04
2018-07-05T02:58:54.082Z,97.24
2018-07-05T03:01:40.509Z,97.48
2018-07-05T03:04:26.800Z,95.90
2018-07-05T03:07:08.385Z,95.58
2018-07-05T03:09:54.832Z,96.33
2018-07-05T03:12:41.168Z,97.16
2018-07-05T03:15:27.779Z,96.85
2018-07-05T03:18:14.352Z,97.17
2018-07-05T03:21:00.735Z,96.83
2018-07-05T03:23:47.155Z,96.71
2018-07-05T03:26:33.573Z,96.34
2018-07-05T03:29:20.054Z,96.27
2018-07-05T03:32:06.554Z,96.71
2018-07-05T03:34:52.966Z,96.25
2018-07-05T03:37:39.574Z,95.89
2018-07-05T03:40:25.696Z,96.01
2018-07-05T03:43:12.162Z,95.66
2018-07-05T03:45:58.367Z,95.56
2018-07-05T03:48:44.930Z,94.60
2018-07-05T03:51:31.413Z,95.03
2018-07-05T03:54:17.734Z,94.69
2018-07-05T03:57:03.996Z,94.38
2018-07-05T03:59:50.262Z,94.73
2018-07-05T04:02:36.720Z,93.86
2018-07-05T04:05:23.184Z,93.43
2018-07-05T04:08:09.674Z,93.42
2018-07-05T04:10:49.967Z,93.61
2018-07-05T04:13:36.666Z,92.58
2018-07-05T04:16:23.043Z,93.53
2018-07-05T04:19:09.507Z,92.00
2018-07-05T04:21:55.963Z,91.60
2018-07-05T04:24:42.331Z,92.70
2018-07-05T04:27:28.563Z,90.82
2018-07-05T04:30:14.879Z,90.94
2018-07-05T04:33:01.230Z,89.84
2018-07-05T04:35:47.527Z,89.40
2018-07-05T04:38:33.502Z,86.47
2018-07-05T04:41:19.719Z,85.13
2018-07-05T04:44:06.200Z,83.16
2018-07-05T04:46:52.743Z,83.06
2018-07-05T04:49:39.160Z,83.09
2018-07-05T04:52:26.436Z,80.90
2018-07-05T04:55:12.841Z,80.72
2018-07-05T04:57:59.412Z,79.62
2018-07-05T05:00:45.894Z,74.87
2018-07-05T05:03:31.962Z,73.56
2018-07-05T05:06:18.033Z,71.33
2018-07-05T05:09:04.970Z,66.98
2018-07-05T05:11:51.379Z,60.97
2018-07-05T05:17:37.674Z,44.76
2018-07-05T05:20:24.018Z,43.70
2018-07-05T05:23:10.302Z,42.14
2018-07-05T05:25:56.870Z,40.59
2018-07-05T05:28:43.084Z,39.41
2018-07-05T05:31:29.448Z,41.49
2018-07-05T05:34:15.590Z,42.89
2018-07-05T05:37:02.214Z,42.65
2018-07-05T05:39:48.780Z,43.69
2018-07-05T05:42:35.233Z,45.30
2018-07-05T05:45:21.440Z,43.63
2018-07-05T05:48:07.605Z,45.01
2018-07-05T05:50:53.782Z,46.91
2018-07-05T05:53:40.310Z,44.85
2018-07-05T05:56:26.947Z,44.36
2018-07-05T05:59:13.333Z,47.18
2018-07-05T06:01:59.682Z,47.68
2018-07-05T06:04:46.014Z,45.12
2018-07-05T06:07:32.159Z,44.58
2018-07-05T06:10:18.629Z,44.97
2018-07-05T06:13:05.207Z,47.18
2018-07-05T06:15:46.542Z,50.52
2018-07-05T06:18:32.627Z,51.64
2018-07-05T06:21:19.252Z,51.10
2018-07-05T06:24:05.561Z,49.63
2018-07-05T06:27:08.446Z,49.83
2018-07-05T06:29:54.634Z,49.94
2018-07-05T06:32:40.905Z,50.71
2018-07-05T06:35:26.908Z,50.01
2018-07-05T06:38:13.127Z,51.30
2018-07-05T06:41:00.020Z,51.94
2018-07-05T06:43:46.546Z,53.32
2018-07-05T06:46:33.170Z,51.60
2018-07-05T06:49:13.529Z,53.17
2018-07-05T06:52:00.012Z,51.96
2018-07-05T06:54:46.770Z,54.23
2018-07-05T06:57:33.091Z,54.14
2018-07-05T07:00:19.826Z,54.32
2018-07-05T07:03:06.207Z,52.64
2018-07-05T07:05:52.708Z,53.56
2018-07-05T07:08:39.179Z,51.12
2018-07-05T07:11:25.647Z,51.76
2018-07-05T07:14:12.259Z,53.46
2018-07-05T07:16:58.679Z,51.85
2018-07-05T07:19:45.071Z,47.95
2018-07-05T07:22:31.589Z,49.48
2018-07-05T07:25:17.823Z,49.59
2018-07-05T07:28:04.230Z,50.79
2018-07-05T07:30:50.751Z,51.95
2018-07-05T07:33:37.158Z,49.34
2018-07-05T07:36:23.325Z,47.25
2018-07-05T07:39:09.575Z,46.45
2018-07-05T07:41:45.226Z,48.23
2018-07-05T07:44:13.018Z,46.86
2018-07-05T07:46:40.752Z,48.41
2018-07-05T07:49:08.451Z,46.29
2018-07-05T07:51:36.171Z,42.51
2018-07-05T07:54:03.895Z,45.14
2018-07-05T07:56:31.686Z,42.73
2018-07-05T07:58:59.380Z,45.02
2018-07-05T08:01:27.119Z,47.58
2018-07-05T08:03:56.090Z,50.18
2018-07-05T08:06:23.810Z,45.99
2018-07-05T08:08:51.530Z,50.19
2018-07-05T08:11:19.246Z,50.16
2018-07-05T08:13:46.953Z,52.26
2018-07-05T08:16:14.656Z,52.53
2018-07-05T08:18:42.372Z,53.04
2018-07-05T08:21:10.067Z,50.59
2018-07-05T08:23:37.772Z,51.89
2018-07-05T08:26:05.487Z,54.28
2018-07-05T08:28:33.211Z,50.48
2018-07-05T08:31:01.014Z,50.37
2018-07-05T08:33:28.727Z,50.13
2018-07-05T08:35:56.468Z,50.11
2018-07-05T08:38:24.204Z,51.88
2018-07-05T08:40:51.906Z,52.34
2018-07-05T08:43:19.620Z,52.98
2018-07-05T08:45:47.318Z,51.66
2018-07-05T08:48:15.033Z,49.01
2018-07-05T08:50:42.725Z,49.87
2018-07-05T08:53:10.426Z,45.71
2018-07-05T08:55:38.122Z,40.96
2018-07-05T08:58:05.890Z,37.43
2018-07-05T09:00:33.605Z,37.04
2018-07-05T09:03:01.315Z,37.57
2018-07-05T09:05:29.019Z,35.54
2018-07-05T09:07:56.743Z,39.19
2018-07-05T09:10:24.462Z,35.18
2018-07-05T09:12:52.197Z,40.43
2018-07-05T09:15:19.887Z,39.33
2018-07-05T09:17:47.848Z,36.26
2018-07-05T09:20:16.653Z,34.79
2018-07-05T09:22:44.370Z,38.73
2018-07-05T09:25:12.064Z,35.63
2018-07-05T09:27:39.767Z,39.64
2018-07-05T09:30:07.466Z,41.52
2018-07-05T09:32:35.184Z,40.28
2018-07-05T09:35:02.879Z,43.51
2018-07-05T09:37:30.616Z,43.62
2018-07-05T09:39:58.325Z,45.51
2018-07-05T09:42:26.038Z,46.31
2018-07-05T09:44:53.729Z,43.54
2018-07-05T09:47:21.577Z,47.87
2018-07-05T09:49:49.275Z,45.75
2018-07-05T09:52:16.982Z,45.46
2018-07-05T09:54:44.691Z,43.56
2018-07-05T09:57:12.388Z,41.14
2018-07-05T09:59:40.108Z,41.00
2018-07-05T10:02:07.925Z,37.58
2018-07-05T10:04:35.731Z,35.25
2018-07-05T10:07:03.452Z,34.50
2018-07-05T10:09:31.183Z,37.87
2018-07-05T10:11:58.912Z,40.45
2018-07-05T10:14:26.625Z,44.73
2018-07-05T10:16:54.334Z,43.18
2018-07-05T10:19:22.051Z,45.17
2018-07-05T10:21:49.747Z,42.91
2018-07-05T10:24:17.454Z,43.67
2018-07-05T10:26:46.424Z,41.53
2018-07-05T10:29:32.716Z,44.79
2018-07-05T10:32:18.950Z,45.68
2018-07-05T10:34:46.698Z,41.37
2018-07-05T10:37:18.458Z,44.65
2018-07-05T10:40:05.339Z,44.73
2018-07-05T10:42:51.835Z,46.75
2018-07-05T10:45:38.268Z,45.38
2018-07-05T10:48:24.816Z,46.20
2018-07-05T10:51:11.273Z,49.58
2018-07-05T10:53:57.472Z,45.74
2018-07-05T10:56:43.998Z,46.49
2018-07-05T10:59:30.552Z,46.34
2018-07-05T11:02:16.951Z,48.25
2018-07-05T11:05:03.510Z,47.63
2018-07-05T11:07:49.767Z,49.23
2018-07-05T11:10:36.053Z,48.21
2018-07-05T11:13:22.463Z,50.10
2018-07-05T11:16:08.723Z,49.93
2018-07-05T11:18:55.366Z,47.82
2018-07-05T11:21:41.583Z,48.20
2018-07-05T11:24:28.422Z,48.48
2018-07-05T11:27:15.033Z,49.87
2018-07-05T11:30:01.424Z,49.15
2018-07-05T11:32:47.937Z,49.19
2018-07-05T11:35:35.225Z,47.14
2018-07-05T11:38:21.743Z,49.06
2018-07-05T11:41:08.350Z,51.50
2018-07-05T11:43:55.008Z,47.98
2018-07-05T11:46:41.678Z,49.74
2018-07-05T11:49:28.257Z,52.85
2018-07-05T11:52:14.662Z,53.51
2018-07-05T11:55:01.074Z,54.48
2018-07-05T11:57:48.463Z,54.10
2018-07-05T12:00:34.958Z,53.68
2018-07-05T12:03:20.967Z,54.09
2018-07-05T12:06:07.455Z,54.66
2018-07-05T12:08:53.948Z,56.20
2018-07-05T12:11:40.391Z,55.96
2018-07-05T12:14:26.901Z,54.83
2018-07-05T12:17:13.218Z,54.62
2018-07-05T12:19:59.342Z,53.06
2018-07-05T12:22:45.542Z,54.38
2018-07-05T12:25:31.678Z,54.95
2018-07-05T12:28:17.942Z,51.37
2018-07-05T12:31:04.787Z,52.73
2018-07-05T12:33:50.886Z,51.55
2018-07-05T12:36:37.138Z,53.19
2018-07-05T12:39:23.371Z,55.38
2018-07-05T12:42:09.543Z,52.00
2018-07-05T12:44:55.655Z,51.87
2018-07-05T12:47:41.966Z,53.86
2018-07-05T12:50:27.967Z,50.75
2018-07-05T12:53:14.014Z,53.24
2018-07-05T12:56:00.113Z,50.84
2018-07-05T12:58:46.191Z,53.09
2018-07-05T13:01:32.111Z,51.92
2018-07-05T13:04:18.286Z,51.33
2018-07-05T13:07:04.674Z,49.15
2018-07-05T13:09:51.157Z,50.34
2018-07-05T13:12:37.871Z,45.00
2018-07-05T13:15:24.111Z,46.60
2018-07-05T13:18:10.484Z,47.00
2018-07-05T13:20:56.883Z,46.61
2018-07-05T13:23:43.382Z,50.47
2018-07-05T13:26:30.792Z,52.06
2018-07-05T13:29:17.070Z,55.20
2018-07-05T13:32:03.504Z,56.82
2018-07-05T13:34:49.919Z,57.35
2018-07-05T13:37:36.264Z,59.10
2018-07-05T13:40:22.990Z,59.62
2018-07-05T13:43:03.303Z,60.12
2018-07-05T13:45:49.580Z,61.83
2018-07-05T13:48:35.914Z,61.88
2018-07-05T13:51:22.515Z,63.47
2018-07-05T13:54:08.916Z,65.67
2018-07-05T13:56:55.389Z,64.99
2018-07-05T13:59:41.990Z,64.81
2018-07-05T14:02:28.499Z,64.74
2018-07-05T14:05:15.168Z,63.75
2018-07-05T14:08:01.648Z,65.00
2018-07-05T14:10:47.847Z,66.63
2018-07-05T14:13:34.106Z,66.56
2018-07-05T14:16:20.231Z,64.85
2018-07-05T14:19:06.421Z,63.84
2018-07-05T14:21:52.628Z,63.91
2018-07-05T14:24:38.845Z,63.53
2018-07-05T14:27:24.897Z,64.20
2018-07-05T14:30:11.934Z,64.57
2018-07-05T14:32:58.043Z,64.51
2018-07-05T14:35:44.282Z,63.43
2018-07-05T14:38:30.459Z,64.13
2018-07-05T14:41:16.678Z,63.66
2018-07-05T14:44:02.894Z,63.72
2018-07-05T14:46:49.043Z,62.95
2018-07-05T14:49:35.542Z,64.66
2018-07-05T14:52:21.614Z,64.32
2018-07-05T14:55:07.778Z,64.20
2018-07-05T14:57:54.032Z,64.64
2018-07-05T15:00:40.231Z,64.92
2018-07-05T15:03:26.315Z,64.20
2018-07-05T15:06:12.423Z,65.49
2018-07-05T15:08:59.615Z,64.04
2018-07-05T15:11:45.581Z,65.74
2018-07-05T15:14:31.990Z,65.31
2018-07-05T15:17:12.406Z,65.18
2018-07-05T15:19:58.842Z,64.45
2018-07-05T15:22:45.230Z,65.15
2018-07-05T15:25:31.495Z,65.56
2018-07-05T15:28:17.874Z,65.75
2018-07-05T15:31:03.986Z,65.37
2018-07-05T15:33:51.210Z,65.70
2018-07-05T15:36:37.405Z,66.43
2018-07-05T15:39:23.647Z,66.70
2018-07-05T15:42:09.740Z,67.31
2018-07-05T15:44:55.918Z,66.21
2018-07-05T15:47:42.067Z,67.22
2018-07-05T15:50:28.291Z,68.46
2018-07-05T15:53:14.636Z,71.11
2018-07-05T15:56:00.729Z,72.30
2018-07-05T15:58:46.826Z,74.40
2018-07-05T16:01:33.081Z,76.04
2018-07-05T16:04:19.317Z,79.55
2018-07-05T16:07:05.529Z,81.90
2018-07-05T16:09:51.626Z,83.26
2018-07-05T16:12:38.759Z,85.29
2018-07-05T16:15:24.947Z,86.07
2018-07-05T16:18:11.109Z,88.01
2018-07-05T16:20:57.199Z,87.64
2018-07-05T16:23:43.440Z,88.81
2018-07-05T16:26:29.670Z,88.77
2018-07-05T16:29:17.023Z,89.00
2018-07-05T16:32:03.228Z,89.55
2018-07-05T16:34:49.290Z,88.98
2018-07-05T16:37:35.330Z,88.54
2018-07-05T16:40:21.427Z,88.22
2018-07-05T16:43:07.701Z,88.38
2018-07-05T16:45:53.747Z,89.14
2018-07-05T16:48:39.878Z,88.40
2018-07-05T16:51:26.123Z,86.66
2018-07-05T16:54:12.375Z,86.64
2018-07-05T16:56:58.634Z,87.47
2018-07-05T16:59:44.931Z,86.37
2018-07-05T17:02:31.274Z,86.39
2018-07-05T17:05:17.595Z,85.08
2018-07-05T17:08:04.082Z,85.69
2018-07-05T17:10:51.674Z,86.42
2018-07-05T17:13:38.070Z,85.26
2018-07-05T17:16:24.632Z,86.37
2018-07-05T17:19:11.048Z,84.92
2018-07-05T17:21:51.558Z,85.10
2018-07-05T17:24:38.805Z,85.81
2018-07-05T17:27:24.944Z,86.08
2018-07-05T17:30:11.235Z,84.87
2018-07-05T17:32:57.428Z,85.25
2018-07-05T17:35:43.618Z,84.01
2018-07-05T17:38:29.943Z,84.43
2018-07-05T17:41:16.011Z,84.76
2018-07-05T17:44:02.004Z,84.64
2018-07-05T17:46:48.027Z,84.35
2018-07-05T17:49:34.078Z,84.28
2018-07-05T17:52:20.268Z,84.41
2018-07-05T17:55:06.754Z,84.46
2018-07-05T17:57:52.712Z,83.30
2018-07-05T18:00:38.836Z,84.32
2018-07-05T18:03:24.943Z,84.10
2018-07-05T18:06:11.162Z,84.19
2018-07-05T18:08:57.490Z,83.36
2018-07-05T18:11:44.940Z,83.34
2018-07-05T18:14:31.321Z,82.96
2018-07-05T18:17:17.844Z,83.20
2018-07-05T18:20:04.315Z,82.66
2018-07-05T18:22:50.770Z,83.03
2018-07-05T18:25:36.949Z,82.54
2018-07-05T18:28:23.181Z,82.74
2018-07-05T18:31:09.363Z,83.34
2018-07-05T18:33:55.683Z,82.45
2018-07-05T18:36:42.134Z,81.32
2018-07-05T18:39:28.427Z,81.99
2018-07-05T18:42:14.548Z,82.48
2018-07-05T18:45:00.663Z,82.69
2018-07-05T18:47:46.850Z,82.90
2018-07-05T18:50:33.279Z,82.25
2018-07-05T18:53:19.484Z,83.24
2018-07-05T18:56:06.028Z,83.09
2018-07-05T18:58:52.610Z,83.95
2018-07-05T19:01:38.963Z,83.68
2018-07-05T19:04:25.254Z,83.61
2018-07-05T19:07:11.666Z,85.38
2018-07-05T19:09:58.466Z,84.05
2018-07-05T19:12:44.869Z,84.73
2018-07-05T19:15:31.424Z,85.89
2018-07-05T19:18:17.931Z,83.16
2018-07-05T19:21:04.318Z,84.45
2018-07-05T19:23:50.608Z,86.34
2018-07-05T19:26:36.903Z,83.35
2018-07-05T19:29:22.984Z,82.73
2018-07-05T19:32:09.206Z,82.99
2018-07-05T19:34:55.347Z,82.89
2018-07-05T19:37:41.483Z,81.80
2018-07-05T19:40:27.598Z,84.14
2018-07-05T19:43:13.815Z,85.42
2018-07-05T19:46:00.035Z,86.40
2018-07-05T19:48:46.035Z,85.30
2018-07-05T19:51:32.030Z,87.64
2018-07-05T19:54:18.266Z,89.54
2018-07-05T19:57:05.170Z,88.79
2018-07-05T19:59:51.347Z,88.32
2018-07-05T20:02:37.347Z,87.23
2018-07-05T20:05:23.793Z,88.05
2018-07-05T20:08:10.393Z,87.15
2018-07-05T20:11:00.095Z,85.90
2018-07-05T20:13:46.530Z,87.44
2018-07-05T20:19:27.915Z,87.07
2018-07-05T20:22:18.671Z,88.13
2018-07-05T20:25:05.178Z,87.94
2018-07-05T20:27:51.596Z,90.41
2018-07-05T20:30:38.040Z,91.09
2018-07-05T20:33:24.618Z,89.22
2018-07-05T20:36:11.111Z,90.75
2018-07-05T20:38:57.569Z,90.51
2018-07-05T20:41:44.138Z,93.17
2018-07-05T20:44:30.500Z,91.89
2018-07-05T20:47:17.013Z,92.11
2018-07-05T20:50:03.905Z,91.84
2018-07-05T20:52:50.156Z,91.17
2018-07-05T20:55:36.475Z,91.33
2018-07-05T20:58:22.854Z,92.04
2018-07-05T21:01:09.377Z,91.99
2018-07-05T21:03:49.923Z,92.46
2018-07-05T21:06:36.300Z,92.85
2018-07-05T21:09:22.467Z,92.01
2018-07-05T21:12:08.608Z,93.08
2018-07-05T21:14:54.852Z,93.09
2018-07-05T21:17:41.091Z,92.26
2018-07-05T21:20:27.261Z,92.76
2018-07-05T21:23:13.258Z,92.80
2018-07-05T21:25:59.399Z,92.43
2018-07-05T21:28:45.534Z,90.02
2018-07-05T21:31:31.648Z,90.65
2018-07-05T21:34:17.850Z,88.62
2018-07-05T21:37:04.321Z,90.91
2018-07-05T21:39:50.693Z,91.29
2018-07-05T21:42:37.077Z,88.20
2018-07-05T21:45:23.528Z,88.66
2018-07-05T21:48:09.930Z,89.80
2018-07-05T21:50:56.398Z,90.65
2018-07-05T21:53:42.848Z,89.14
2018-07-05T21:56:29.245Z,88.54
2018-07-05T21:59:15.783Z,89.97
2018-07-05T22:02:02.314Z,92.03
2018-07-05T22:04:48.735Z,90.68
2018-07-05T22:07:35.233Z,91.52
2018-07-05T22:10:21.599Z,91.36
2018-07-05T22:13:07.903Z,92.22
2018-07-05T22:15:54.572Z,93.39
2018-07-05T22:18:45.879Z,93.69
2018-07-05T22:21:32.067Z,93.25
2018-07-05T22:24:23.847Z,92.02
2018-07-05T22:27:14.302Z,89.45
2018-07-05T22:30:06.033Z,88.68
2018-07-05T22:32:52.308Z,88.11
2018-07-05T22:35:39.175Z,88.50
2018-07-05T22:38:25.646Z,88.62
2018-07-05T22:41:12.135Z,88.91
2018-07-05T22:43:58.620Z,88.69
2018-07-05T22:46:44.923Z,88.81
2018-07-05T22:49:31.314Z,89.77
2018-07-05T22:52:17.341Z,89.81
2018-07-05T22:55:03.729Z,90.08
2018-07-05T22:57:49.850Z,91.23
2018-07-05T23:00:35.950Z,90.98
2018-07-05T23:03:22.019Z,89.97
2018-07-05T23:06:08.004Z,91.69
2018-07-05T23:08:54.051Z,92.38
2018-07-05T23:11:40.270Z,90.43
2018-07-05T23:14:26.512Z,91.58
2018-07-05T23:17:13.006Z,90.94
2018-07-05T23:19:59.722Z,92.76
2018-07-05T23:22:45.927Z,92.88
2018-07-05T23:25:32.440Z,93.24
2018-07-05T23:28:18.992Z,91.32
2018-07-05T23:31:05.387Z,91.69
2018-07-05T23:33:51.746Z,92.61
2018-07-05T23:36:38.235Z,93.24
2018-07-05T23:39:24.859Z,92.93
2018-07-05T23:42:11.422Z,93.52
2018-07-05T23:44:58.046Z,92.37
2018-07-05T23:47:44.059Z,92.25
2018-07-05T23:50:30.095Z,91.77
2018-07-05T23:53:16.283Z,92.18
2018-07-05T23:56:02.429Z,92.74
2018-07-05T23:58:48.681Z,92.76
